createdAt,value
2023-03-04T00:00:06.544Z,17
2023-03-04T00:01:11.221Z,25.8
2023-03-04T00:01:47.011Z,25.8
2023-03-04T00:02:51.578Z,25.8
2023-03-04T00:03:27.434Z,25.8
2023-03-04T00:04:31.995Z,25.8
2023-03-04T00:05:07.720Z,25.8
2023-03-04T00:06:12.312Z,25.8
2023-03-04T00:06:47.990Z,25.8
2023-03-04T00:07:52.704Z,25.8
2023-03-04T00:08:28.342Z,25.8
2023-03-04T00:09:32.995Z,25.8
2023-03-04T00:10:08.656Z,25.8
2023-03-04T00:11:13.293Z,20.2
2023-03-04T00:11:48.943Z,20.2
2023-03-04T00:12:53.602Z,20.2
2023-03-04T00:13:29.230Z,20.2
2023-03-04T00:14:33.924Z,20.2
2023-03-04T00:15:09.555Z,20.2
2023-03-04T00:16:14.238Z,20.2
2023-03-04T00:16:49.847Z,20.2
2023-03-04T00:17:54.506Z,20.2
2023-03-04T00:18:30.158Z,20.2
2023-03-04T00:19:34.814Z,20.2
2023-03-04T00:20:10.449Z,20.2
2023-03-04T00:21:15.125Z,18.9
2023-03-04T00:21:50.745Z,18.9
2023-03-04T00:22:55.430Z,18.9
2023-03-04T00:23:31.030Z,18.9
2023-03-04T00:24:35.840Z,18.9
2023-03-04T00:25:11.332Z,18.9
2023-03-04T00:26:16.116Z,18.9
2023-03-04T00:26:51.633Z,18.9
2023-03-04T00:27:56.483Z,18.9
2023-03-04T00:28:31.944Z,18.9
2023-03-04T00:29:36.763Z,18.9
2023-03-04T00:30:12.258Z,18.9
2023-03-04T00:31:17.099Z,13.4
2023-03-04T00:31:52.562Z,13.4
2023-03-04T00:32:57.415Z,13.4
2023-03-04T00:33:32.850Z,13.4
2023-03-04T00:34:37.760Z,13.4
2023-03-04T00:35:13.166Z,13.4
2023-03-04T00:36:17.961Z,13.4
2023-03-04T00:36:53.444Z,13.4
2023-03-04T00:37:58.347Z,13.4
2023-03-04T00:38:33.750Z,13.4
2023-03-04T00:39:38.669Z,13.4
2023-03-04T00:40:14.056Z,13.4
2023-03-04T00:41:18.949Z,13.4
2023-03-04T00:41:54.354Z,14.4
2023-03-04T00:42:59.209Z,14.4
2023-03-04T00:43:34.650Z,14.4
2023-03-04T00:44:39.526Z,14.4
2023-03-04T00:45:14.976Z,14.4
2023-03-04T00:46:19.876Z,14.4
2023-03-04T00:46:55.290Z,14.4
2023-03-04T00:48:00.044Z,14.4
2023-03-04T00:48:35.545Z,14.4
2023-03-04T00:49:40.410Z,14.4
2023-03-04T00:50:15.847Z,14.4
2023-03-04T00:51:20.878Z,14.4
2023-03-04T00:51:56.181Z,17
2023-03-04T00:53:01.186Z,17
2023-03-04T00:53:36.479Z,17
2023-03-04T00:54:41.560Z,17
2023-03-04T00:55:16.801Z,17
2023-03-04T00:56:21.851Z,17
2023-03-04T00:56:57.100Z,17
2023-03-04T00:58:02.267Z,17
2023-03-04T00:58:37.378Z,17
2023-03-04T00:59:42.594Z,17
2023-03-04T01:00:17.683Z,17
2023-03-04T01:01:23.074Z,17
2023-03-04T01:01:57.993Z,9.4
2023-03-04T01:03:03.377Z,9.4
2023-03-04T01:03:38.290Z,9.4
2023-03-04T01:04:43.839Z,9.4
2023-03-04T01:05:18.592Z,9.4
2023-03-04T01:06:24.160Z,9.4
2023-03-04T01:06:58.921Z,9.4
2023-03-04T01:08:04.483Z,9.4
2023-03-04T01:08:39.206Z,9.4
2023-03-04T01:09:44.780Z,9.4
2023-03-04T01:10:19.526Z,9.4
2023-03-04T01:11:25.075Z,9.4
2023-03-04T01:11:59.801Z,13.5
2023-03-04T01:13:05.390Z,13.5
2023-03-04T01:13:40.111Z,13.5
2023-03-04T01:14:45.676Z,13.5
2023-03-04T01:15:20.409Z,13.5
2023-03-04T01:16:26.079Z,13.5
2023-03-04T01:17:00.863Z,13.5
2023-03-04T01:18:06.428Z,13.5
2023-03-04T01:18:41.021Z,13.5
2023-03-04T01:19:46.728Z,13.5
2023-03-04T01:20:21.348Z,13.5
2023-03-04T01:21:26.882Z,13.5
2023-03-04T01:22:01.640Z,14.1
2023-03-04T01:23:07.222Z,14.1
2023-03-04T01:23:41.930Z,14.1
2023-03-04T01:24:47.627Z,14.1
2023-03-04T01:25:22.347Z,14.1
2023-03-04T01:26:28.001Z,14.1
2023-03-04T01:27:02.676Z,14.1
2023-03-04T01:28:08.387Z,14.1
2023-03-04T01:28:43.052Z,14.1
2023-03-04T01:29:48.745Z,14.1
2023-03-04T01:30:23.390Z,14.1
2023-03-04T01:31:29.088Z,14.1
2023-03-04T01:32:03.847Z,15.7
2023-03-04T01:33:09.507Z,15.7
2023-03-04T01:33:44.103Z,15.7
2023-03-04T01:34:49.868Z,15.7
2023-03-04T01:35:24.508Z,15.7
2023-03-04T01:36:30.268Z,15.7
2023-03-04T01:37:04.884Z,15.7
2023-03-04T01:38:10.677Z,15.7
2023-03-04T01:38:45.273Z,15.7
2023-03-04T01:39:51.059Z,15.7
2023-03-04T01:40:25.641Z,15.7
2023-03-04T01:41:31.418Z,15.7
2023-03-04T01:42:06.030Z,12.3
2023-03-04T01:43:11.779Z,12.3
2023-03-04T01:43:46.432Z,12.3
2023-03-04T01:44:52.120Z,12.3
2023-03-04T01:45:26.744Z,12.3
2023-03-04T01:46:32.665Z,12.3
2023-03-04T01:47:07.144Z,12.3
2023-03-04T01:48:12.963Z,12.3
2023-03-04T01:48:47.743Z,12.3
2023-03-04T01:49:53.321Z,12.3
2023-03-04T01:50:27.991Z,12.3
2023-03-04T01:51:33.800Z,12.3
2023-03-04T01:52:08.389Z,17.2
2023-03-04T01:53:14.360Z,17.2
2023-03-04T01:53:48.757Z,17.2
2023-03-04T01:54:54.745Z,17.2
2023-03-04T01:55:29.120Z,17.2
2023-03-04T01:56:35.178Z,17.2
2023-03-04T01:57:09.497Z,17.2
2023-03-04T01:58:15.462Z,17.2
2023-03-04T01:58:49.890Z,17.2
2023-03-04T01:59:55.781Z,17.2
2023-03-04T02:00:30.231Z,17.2
2023-03-04T02:01:36.130Z,17.2
2023-03-04T02:02:10.563Z,17.2
2023-03-04T02:03:16.358Z,16.9
2023-03-04T02:03:50.908Z,16.9
2023-03-04T02:04:56.671Z,16.9
2023-03-04T02:05:31.297Z,16.9
2023-03-04T02:06:36.965Z,16.9
2023-03-04T02:07:11.658Z,16.9
2023-03-04T02:08:17.381Z,16.9
2023-03-04T02:08:52.135Z,16.9
2023-03-04T02:09:57.767Z,16.9
2023-03-04T02:10:32.382Z,16.9
2023-03-04T02:11:38.222Z,16.9
2023-03-04T02:12:12.684Z,11.7
2023-03-04T02:13:18.662Z,11.7
2023-03-04T02:13:52.979Z,11.7
2023-03-04T02:14:59.097Z,11.7
2023-03-04T02:15:33.277Z,11.7
2023-03-04T02:16:39.468Z,11.7
2023-03-04T02:17:13.582Z,11.7
2023-03-04T02:18:19.800Z,11.7
2023-03-04T02:18:53.883Z,11.7
2023-03-04T02:20:00.282Z,11.7
2023-03-04T02:20:34.205Z,11.7
2023-03-04T02:21:40.598Z,11.7
2023-03-04T02:22:14.492Z,11.7
2023-03-04T02:23:21.015Z,11.5
2023-03-04T02:23:54.821Z,11.5
2023-03-04T02:25:01.610Z,11.5
2023-03-04T02:25:35.137Z,11.5
2023-03-04T02:26:42.026Z,11.5
2023-03-04T02:27:15.404Z,11.5
2023-03-04T02:28:22.329Z,11.5
2023-03-04T02:28:55.716Z,11.5
2023-03-04T02:30:02.710Z,11.5
2023-03-04T02:30:36.060Z,11.5
2023-03-04T02:31:43.021Z,11.5
2023-03-04T02:32:16.575Z,11.5
2023-03-04T02:33:23.303Z,20.1
2023-03-04T02:33:56.777Z,20.1
2023-03-04T02:35:03.759Z,20.1
2023-03-04T02:35:37.170Z,20.1
2023-03-04T02:36:44.108Z,20.1
2023-03-04T02:37:17.605Z,20.1
2023-03-04T02:38:24.425Z,20.1
2023-03-04T02:38:57.890Z,20.1
2023-03-04T02:40:04.760Z,20.1
2023-03-04T02:40:38.256Z,20.1
2023-03-04T02:41:45.097Z,20.1
2023-03-04T02:42:18.651Z,20.1
2023-03-04T02:43:25.512Z,13.4
2023-03-04T02:43:58.984Z,13.4
2023-03-04T02:45:05.756Z,13.4
2023-03-04T02:45:39.314Z,13.4
2023-03-04T02:46:46.039Z,13.4
2023-03-04T02:48:26.342Z,13.4
2023-03-04T02:49:00.055Z,13.4
2023-03-04T02:50:06.670Z,13.4
2023-03-04T02:50:40.420Z,13.4
2023-03-04T02:51:47.060Z,13.4
2023-03-04T02:52:20.798Z,13.4
2023-03-04T02:53:27.383Z,16.4
2023-03-04T02:54:01.179Z,16.4
2023-03-04T02:55:07.678Z,16.4
2023-03-04T02:55:41.570Z,16.4
2023-03-04T02:56:48.061Z,16.4
2023-03-04T02:57:22.016Z,16.4
2023-03-04T02:58:28.473Z,16.4
2023-03-04T02:59:02.327Z,16.4
2023-03-04T03:00:08.913Z,16.4
2023-03-04T03:00:42.672Z,16.4
2023-03-04T03:01:49.326Z,16.4
2023-03-04T03:02:23.015Z,16.4
2023-03-04T03:03:29.758Z,14.1
2023-03-04T03:04:03.378Z,14.1
2023-03-04T03:05:10.029Z,14.1
2023-03-04T03:05:43.825Z,14.1
2023-03-04T03:06:50.372Z,14.1
2023-03-04T03:07:24.162Z,14.1
2023-03-04T03:08:30.821Z,14.1
2023-03-04T03:09:04.548Z,14.1
2023-03-04T03:10:11.226Z,14.1
2023-03-04T03:10:44.997Z,14.1
2023-03-04T03:11:51.626Z,14.1
2023-03-04T03:12:25.352Z,14.1
2023-03-04T03:13:31.956Z,14.1
2023-03-04T03:14:05.698Z,14.1
2023-03-04T03:15:12.304Z,14.1
2023-03-04T03:15:47.043Z,14.1
2023-03-04T03:16:52.686Z,14.1
2023-03-04T03:17:26.431Z,14.1
2023-03-04T03:18:33.044Z,14.1
2023-03-04T03:19:06.717Z,14.1
2023-03-04T03:20:13.366Z,14.1
2023-03-04T03:20:47.032Z,14.1
2023-03-04T03:21:53.717Z,14.1
2023-03-04T03:22:27.315Z,14.1
2023-03-04T03:23:34.014Z,14.4
2023-03-04T03:24:07.616Z,14.4
2023-03-04T03:25:14.367Z,14.4
2023-03-04T03:25:47.921Z,14.4
2023-03-04T03:26:54.797Z,14.4
2023-03-04T03:27:28.205Z,14.4
2023-03-04T03:28:35.165Z,14.4
2023-03-04T03:29:08.512Z,14.4
2023-03-04T03:30:15.424Z,14.4
2023-03-04T03:30:48.813Z,14.4
2023-03-04T03:31:55.894Z,14.4
2023-03-04T03:32:29.119Z,14.4
2023-03-04T03:33:36.333Z,8.1
2023-03-04T03:34:09.427Z,8.1
2023-03-04T03:35:16.669Z,8.1
2023-03-04T03:35:49.757Z,8.1
2023-03-04T03:36:57.095Z,8.1
2023-03-04T03:37:30.034Z,8.1
2023-03-04T03:38:37.436Z,8.1
2023-03-04T03:39:10.340Z,8.1
2023-03-04T03:40:17.792Z,8.1
2023-03-04T03:40:50.701Z,8.1
2023-03-04T03:41:58.135Z,8.1
2023-03-04T03:42:31.067Z,8.1
2023-03-04T03:43:38.482Z,12.7
2023-03-04T03:45:18.805Z,12.7
2023-03-04T03:45:51.901Z,12.7
2023-03-04T03:46:59.260Z,12.7
2023-03-04T03:47:32.070Z,12.7
2023-03-04T03:48:39.612Z,12.7
2023-03-04T03:49:12.405Z,12.7
2023-03-04T03:50:19.904Z,12.7
2023-03-04T03:50:52.672Z,12.7
2023-03-04T03:52:00.301Z,12.7
2023-03-04T03:52:32.982Z,12.7
2023-03-04T03:53:40.641Z,8.1
2023-03-04T03:54:13.266Z,8.1
2023-03-04T03:55:21.065Z,8.1
2023-03-04T03:55:53.603Z,8.1
2023-03-04T03:57:01.472Z,8.1
2023-03-04T03:57:33.918Z,8.1
2023-03-04T03:58:41.848Z,8.1
2023-03-04T03:59:14.192Z,8.1
2023-03-04T04:00:22.294Z,8.1
2023-03-04T04:00:56.496Z,8.1
2023-03-04T04:02:02.896Z,8.1
2023-03-04T04:02:34.936Z,8.1
2023-03-04T04:03:43.100Z,7.3
2023-03-04T04:04:15.106Z,7.3
2023-03-04T04:05:23.481Z,7.3
2023-03-04T04:05:55.410Z,7.3
2023-03-04T04:07:03.884Z,7.3
2023-03-04T04:07:35.738Z,7.3
2023-03-04T04:08:44.307Z,7.3
2023-03-04T04:09:16.011Z,7.3
2023-03-04T04:10:24.613Z,7.3
2023-03-04T04:10:56.323Z,7.3
2023-03-04T04:12:04.980Z,7.3
2023-03-04T04:12:36.634Z,7.3
2023-03-04T04:13:45.334Z,6.6
2023-03-04T04:14:16.955Z,6.6
2023-03-04T04:15:25.627Z,6.6
2023-03-04T04:15:57.251Z,6.6
2023-03-04T04:17:05.926Z,6.6
2023-03-04T04:17:37.520Z,6.6
2023-03-04T04:18:46.236Z,6.6
2023-03-04T04:19:17.839Z,6.6
2023-03-04T04:20:26.568Z,6.6
2023-03-04T04:20:58.123Z,6.6
2023-03-04T04:22:06.908Z,6.6
2023-03-04T04:22:38.412Z,6.6
2023-03-04T04:23:47.229Z,7.5
2023-03-04T04:24:18.718Z,7.5
2023-03-04T04:25:27.602Z,7.5
2023-03-04T04:25:59.018Z,7.5
2023-03-04T04:27:07.907Z,7.5
2023-03-04T04:27:39.358Z,7.5
2023-03-04T04:28:48.223Z,7.5
2023-03-04T04:29:19.638Z,7.5
2023-03-04T04:30:28.574Z,7.5
2023-03-04T04:31:00.128Z,7.5
2023-03-04T04:32:08.931Z,7.5
2023-03-04T04:32:40.218Z,7.5
2023-03-04T04:33:49.181Z,9.1
2023-03-04T04:34:20.540Z,9.1
2023-03-04T04:35:29.579Z,9.1
2023-03-04T04:36:00.940Z,9.1
2023-03-04T04:37:09.897Z,9.1
2023-03-04T04:37:41.140Z,9.1
2023-03-04T04:38:50.353Z,9.1
2023-03-04T04:39:21.470Z,9.1
2023-03-04T04:40:30.768Z,9.1
2023-03-04T04:41:01.766Z,9.1
2023-03-04T04:42:11.202Z,9.1
2023-03-04T04:42:42.066Z,9.1
2023-03-04T04:43:51.579Z,4.8
2023-03-04T04:44:22.351Z,4.8
2023-03-04T04:45:32.062Z,4.8
2023-03-04T04:46:02.761Z,4.8
2023-03-04T04:47:12.472Z,4.8
2023-03-04T04:47:42.971Z,4.8
2023-03-04T04:48:52.843Z,4.8
2023-03-04T04:49:23.273Z,4.8
2023-03-04T04:50:33.271Z,4.8
2023-03-04T04:51:03.585Z,4.8
2023-03-04T04:52:13.671Z,4.8
2023-03-04T04:52:43.863Z,4.8
2023-03-04T04:53:54.067Z,4.8
2023-03-04T04:54:24.158Z,6.7
2023-03-04T04:55:34.368Z,6.7
2023-03-04T04:56:04.461Z,6.7
2023-03-04T04:57:14.731Z,6.7
2023-03-04T04:57:44.762Z,6.7
2023-03-04T04:58:55.116Z,6.7
2023-03-04T04:59:25.083Z,6.7
2023-03-04T05:00:35.507Z,6.7
2023-03-04T05:01:05.412Z,6.7
2023-03-04T05:02:15.908Z,6.7
2023-03-04T05:02:45.683Z,6.7
2023-03-04T05:03:56.308Z,6.7
2023-03-04T05:04:25.977Z,10
2023-03-04T05:05:36.676Z,10
2023-03-04T05:06:06.268Z,10
2023-03-04T05:07:17.019Z,10
2023-03-04T05:07:46.571Z,10
2023-03-04T05:08:57.341Z,10
2023-03-04T05:09:26.868Z,10
2023-03-04T05:10:37.632Z,10
2023-03-04T05:11:07.164Z,10
2023-03-04T05:12:18.044Z,10
2023-03-04T05:12:47.480Z,10
2023-03-04T05:13:58.373Z,10
2023-03-04T05:14:27.800Z,9.7
2023-03-04T05:15:38.682Z,9.7
2023-03-04T05:16:08.156Z,9.7
2023-03-04T05:17:18.980Z,9.7
2023-03-04T05:17:48.409Z,9.7
2023-03-04T05:18:59.249Z,9.7
2023-03-04T05:19:28.709Z,9.7
2023-03-04T05:20:39.596Z,9.7
2023-03-04T05:21:09.073Z,9.7
2023-03-04T05:22:19.914Z,9.7
2023-03-04T05:22:49.462Z,9.7
2023-03-04T05:24:00.248Z,9.7
2023-03-04T05:24:29.983Z,12.2
2023-03-04T05:25:40.609Z,12.2
2023-03-04T05:26:10.140Z,12.2
2023-03-04T05:27:20.959Z,12.2
2023-03-04T05:27:50.467Z,12.2
2023-03-04T05:29:01.345Z,12.2
2023-03-04T05:29:30.878Z,12.2
2023-03-04T05:30:41.634Z,12.2
2023-03-04T05:31:11.330Z,12.2
2023-03-04T05:32:22.075Z,12.2
2023-03-04T05:32:51.612Z,12.2
2023-03-04T05:34:02.359Z,12.2
2023-03-04T05:34:32.005Z,9.6
2023-03-04T05:35:42.718Z,9.6
2023-03-04T05:36:12.404Z,9.6
2023-03-04T05:37:23.072Z,9.6
2023-03-04T05:37:52.760Z,9.6
2023-03-04T05:39:03.317Z,9.6
2023-03-04T05:39:33.120Z,9.6
2023-03-04T05:40:43.741Z,9.6
2023-03-04T05:41:13.448Z,9.6
2023-03-04T05:42:24.068Z,9.6
2023-03-04T05:42:53.783Z,9.6
2023-03-04T05:44:04.340Z,9.6
2023-03-04T05:44:34.157Z,12.4
2023-03-04T05:45:44.791Z,12.4
2023-03-04T05:46:14.617Z,12.4
2023-03-04T05:47:25.177Z,12.4
2023-03-04T05:47:54.988Z,12.4
2023-03-04T05:49:05.583Z,12.4
2023-03-04T05:49:35.364Z,12.4
2023-03-04T05:50:46.074Z,12.4
2023-03-04T05:51:15.718Z,12.4
2023-03-04T05:52:26.354Z,12.4
2023-03-04T05:52:56.068Z,12.4
2023-03-04T05:54:06.707Z,12.4
2023-03-04T05:54:36.404Z,8.2
2023-03-04T05:55:47.171Z,8.2
2023-03-04T05:56:16.780Z,8.2
2023-03-04T05:57:27.414Z,8.2
2023-03-04T05:57:57.117Z,8.2
2023-03-04T05:59:07.785Z,8.2
2023-03-04T05:59:37.479Z,8.2
2023-03-04T06:00:48.121Z,8.2
2023-03-04T06:01:17.886Z,8.2
2023-03-04T06:02:28.628Z,8.2
2023-03-04T06:02:58.228Z,8.2
2023-03-04T06:04:08.939Z,8.2
2023-03-04T06:04:38.560Z,6.3
2023-03-04T06:05:49.238Z,6.3
2023-03-04T06:06:18.961Z,6.3
2023-03-04T06:07:29.531Z,6.3
2023-03-04T06:07:59.299Z,6.3
2023-03-04T06:09:09.873Z,6.3
2023-03-04T06:09:39.695Z,6.3
2023-03-04T06:10:50.314Z,6.3
2023-03-04T06:11:20.054Z,6.3
2023-03-04T06:12:30.724Z,6.3
2023-03-04T06:13:00.335Z,6.3
2023-03-04T06:14:11.190Z,6.3
2023-03-04T06:14:40.619Z,10
2023-03-04T06:15:51.502Z,10
2023-03-04T06:16:20.960Z,10
2023-03-04T06:17:31.717Z,10
2023-03-04T06:18:01.242Z,10
2023-03-04T06:19:12.088Z,10
2023-03-04T06:19:41.501Z,10
2023-03-04T06:20:52.511Z,10
2023-03-04T06:21:21.840Z,10
2023-03-04T06:22:32.700Z,10
2023-03-04T06:23:02.143Z,10
2023-03-04T06:24:13.011Z,10
2023-03-04T06:24:42.424Z,6.9
2023-03-04T06:25:53.277Z,6.9
2023-03-04T06:26:22.725Z,6.9
2023-03-04T06:27:33.621Z,6.9
2023-03-04T06:28:03.045Z,6.9
2023-03-04T06:29:13.917Z,6.9
2023-03-04T06:29:43.346Z,6.9
2023-03-04T06:30:54.296Z,6.9
2023-03-04T06:31:23.667Z,6.9
2023-03-04T06:32:34.657Z,6.9
2023-03-04T06:33:03.952Z,6.9
2023-03-04T06:34:14.958Z,6.9
2023-03-04T06:34:44.236Z,6.9
2023-03-04T06:35:55.321Z,7.4
2023-03-04T06:36:24.543Z,7.4
2023-03-04T06:37:35.573Z,7.4
2023-03-04T06:38:04.865Z,7.4
2023-03-04T06:39:15.850Z,7.4
2023-03-04T06:39:45.156Z,7.4
2023-03-04T06:40:57.585Z,7.4
2023-03-04T06:41:25.448Z,7.4
2023-03-04T06:42:36.429Z,7.4
2023-03-04T06:43:05.742Z,7.4
2023-03-04T06:44:16.640Z,7.4
2023-03-04T06:44:46.045Z,7.4
2023-03-04T06:45:56.988Z,6.5
2023-03-04T06:46:28.245Z,6.5
2023-03-04T06:47:37.294Z,6.5
2023-03-04T06:48:06.690Z,6.5
2023-03-04T06:49:17.661Z,6.5
2023-03-04T06:49:46.953Z,6.5
2023-03-04T06:50:57.999Z,6.5
2023-03-04T06:51:27.245Z,6.5
2023-03-04T06:52:38.382Z,6.5
2023-03-04T06:53:07.554Z,6.5
2023-03-04T06:54:18.626Z,6.5
2023-03-04T06:54:47.871Z,6.5
2023-03-04T06:55:58.994Z,5.9
2023-03-04T06:56:28.128Z,5.9
2023-03-04T06:57:39.357Z,5.9
2023-03-04T06:58:08.451Z,5.9
2023-03-04T06:59:19.631Z,5.9
2023-03-04T06:59:48.760Z,5.9
2023-03-04T07:01:00.023Z,5.9
2023-03-04T07:01:29.061Z,5.9
2023-03-04T07:02:40.320Z,5.9
2023-03-04T07:03:09.361Z,5.9
2023-03-04T07:04:20.642Z,5.9
2023-03-04T07:04:49.662Z,5.9
2023-03-04T07:06:00.899Z,11
2023-03-04T07:06:29.971Z,11
2023-03-04T07:07:41.316Z,11
2023-03-04T07:08:10.279Z,11
2023-03-04T07:09:21.667Z,11
2023-03-04T07:09:50.552Z,11
2023-03-04T07:11:02.091Z,11
2023-03-04T07:11:30.861Z,11
2023-03-04T07:12:42.505Z,11
2023-03-04T07:13:11.155Z,11
2023-03-04T07:14:24.297Z,11
2023-03-04T07:14:51.449Z,11
2023-03-04T07:16:03.228Z,6.6
2023-03-04T07:16:31.824Z,6.6
2023-03-04T07:17:43.546Z,6.6
2023-03-04T07:18:12.084Z,6.6
2023-03-04T07:19:23.941Z,6.6
2023-03-04T07:19:52.421Z,6.6
2023-03-04T07:21:04.395Z,6.6
2023-03-04T07:21:32.749Z,6.6
2023-03-04T07:22:44.787Z,6.6
2023-03-04T07:23:13.065Z,6.6
2023-03-04T07:24:25.213Z,6.6
2023-03-04T07:24:53.343Z,6.6
2023-03-04T07:26:05.559Z,6.1
2023-03-04T07:26:33.696Z,6.1
2023-03-04T07:27:46.000Z,6.1
2023-03-04T07:28:13.965Z,6.1
2023-03-04T07:29:26.418Z,6.1
2023-03-04T07:29:54.263Z,6.1
2023-03-04T07:31:06.805Z,6.1
2023-03-04T07:31:34.659Z,6.1
2023-03-04T07:32:47.246Z,6.1
2023-03-04T07:33:14.912Z,6.1
2023-03-04T07:34:27.583Z,6.1
2023-03-04T07:34:55.255Z,6.1
2023-03-04T07:36:07.988Z,5
2023-03-04T07:36:35.573Z,5
2023-03-04T07:37:48.366Z,5
2023-03-04T07:38:15.817Z,5
2023-03-04T07:39:28.689Z,5
2023-03-04T07:39:56.119Z,5
2023-03-04T07:41:09.102Z,5
2023-03-04T07:41:36.543Z,5
2023-03-04T07:42:49.311Z,5
2023-03-04T07:43:16.707Z,5
2023-03-04T07:44:29.637Z,5
2023-03-04T07:44:57.016Z,5
2023-03-04T07:46:09.947Z,1.9
2023-03-04T07:46:37.314Z,1.9
2023-03-04T07:47:50.421Z,1.9
2023-03-04T07:48:17.659Z,1.9
2023-03-04T07:49:26.380Z,0
2023-03-04T07:49:57.908Z,1.9
2023-03-04T07:51:06.690Z,1.9
2023-03-04T07:51:38.216Z,1.9
2023-03-04T07:52:47.069Z,1.9
2023-03-04T07:53:18.522Z,1.9
2023-03-04T07:54:27.476Z,1.9
2023-03-04T07:54:58.824Z,1.9
2023-03-04T07:56:07.867Z,4.6
2023-03-04T07:56:39.116Z,4.6
2023-03-04T07:57:48.268Z,4.6
2023-03-04T07:58:19.420Z,4.6
2023-03-04T07:59:28.598Z,4.6
2023-03-04T07:59:59.723Z,4.6
2023-03-04T08:01:09.031Z,4.6
2023-03-04T08:01:40.026Z,4.6
2023-03-04T08:02:49.399Z,4.6
2023-03-04T08:03:20.369Z,4.6
2023-03-04T08:04:29.755Z,4.6
2023-03-04T08:05:00.703Z,4.6
2023-03-04T08:06:10.070Z,4.9
2023-03-04T08:06:41.020Z,4.9
2023-03-04T08:07:50.490Z,4.9
2023-03-04T08:08:21.263Z,4.9
2023-03-04T08:09:30.968Z,4.9
2023-03-04T08:10:01.677Z,4.9
2023-03-04T08:11:11.338Z,4.9
2023-03-04T08:11:41.938Z,4.9
2023-03-04T08:12:51.729Z,4.9
2023-03-04T08:13:24.226Z,4.9
2023-03-04T08:14:32.192Z,4.9
2023-03-04T08:15:02.491Z,4.9
2023-03-04T08:16:12.669Z,10.5
2023-03-04T08:16:42.812Z,10.5
2023-03-04T08:17:52.953Z,10.5
2023-03-04T08:18:23.095Z,10.5
2023-03-04T08:19:33.312Z,10.5
2023-03-04T08:20:03.408Z,10.5
2023-03-04T08:21:13.705Z,10.5
2023-03-04T08:21:43.690Z,10.5
2023-03-04T08:22:54.198Z,10.5
2023-03-04T08:23:24.029Z,10.5
2023-03-04T08:24:34.567Z,10.5
2023-03-04T08:25:04.303Z,10.5
2023-03-04T08:26:14.975Z,4.1
2023-03-04T08:26:44.602Z,4.1
2023-03-04T08:27:55.294Z,4.1
2023-03-04T08:28:24.880Z,4.1
2023-03-04T08:29:35.697Z,4.1
2023-03-04T08:30:05.204Z,4.1
2023-03-04T08:31:16.214Z,4.1
2023-03-04T08:31:48.390Z,4.1
2023-03-04T08:32:56.516Z,4.1
2023-03-04T08:33:25.796Z,4.1
2023-03-04T08:34:36.893Z,4.1
2023-03-04T08:35:06.101Z,4.1
2023-03-04T08:36:17.144Z,9
2023-03-04T08:36:46.377Z,9
2023-03-04T08:37:57.488Z,9
2023-03-04T08:38:26.687Z,9
2023-03-04T08:39:37.764Z,9
2023-03-04T08:40:06.984Z,9
2023-03-04T08:41:18.091Z,9
2023-03-04T08:41:47.270Z,9
2023-03-04T08:42:58.415Z,9
2023-03-04T08:43:27.574Z,9
2023-03-04T08:44:38.663Z,9
2023-03-04T08:45:07.876Z,9
2023-03-04T08:46:18.996Z,9
2023-03-04T08:46:48.188Z,3.4
2023-03-04T08:47:59.290Z,3.4
2023-03-04T08:48:28.459Z,3.4
2023-03-04T08:49:39.600Z,3.4
2023-03-04T08:50:08.768Z,3.4
2023-03-04T08:51:20.104Z,3.4
2023-03-04T08:51:49.071Z,3.4
2023-03-04T08:53:00.569Z,3.4
2023-03-04T08:53:29.387Z,3.4
2023-03-04T08:54:40.950Z,3.4
2023-03-04T08:55:09.671Z,3.4
2023-03-04T08:56:21.373Z,3.4
2023-03-04T08:56:49.977Z,8.3
2023-03-04T08:58:01.673Z,8.3
2023-03-04T08:58:30.280Z,8.3
2023-03-04T08:59:42.062Z,8.3
2023-03-04T09:00:10.563Z,8.3
2023-03-04T09:01:22.426Z,8.3
2023-03-04T09:01:50.959Z,8.3
2023-03-04T09:03:02.829Z,8.3
2023-03-04T09:03:31.235Z,8.3
2023-03-04T09:04:43.232Z,8.3
2023-03-04T09:05:11.498Z,8.3
2023-03-04T09:06:23.694Z,8.3
2023-03-04T09:06:53.903Z,7.9
2023-03-04T09:08:04.105Z,7.9
2023-03-04T09:08:32.118Z,7.9
2023-03-04T09:09:44.486Z,7.9
2023-03-04T09:10:12.414Z,7.9
2023-03-04T09:11:24.832Z,7.9
2023-03-04T09:11:52.720Z,7.9
2023-03-04T09:13:05.167Z,7.9
2023-03-04T09:13:33.039Z,7.9
2023-03-04T09:14:45.529Z,7.9
2023-03-04T09:15:13.333Z,7.9
2023-03-04T09:16:26.027Z,7.9
2023-03-04T09:16:53.639Z,7.9
2023-03-04T09:18:06.319Z,4.1
2023-03-04T09:18:33.932Z,4.1
2023-03-04T09:19:46.612Z,4.1
2023-03-04T09:20:14.223Z,4.1
2023-03-04T09:21:26.943Z,4.1
2023-03-04T09:21:54.543Z,4.1
2023-03-04T09:23:07.313Z,4.1
2023-03-04T09:23:34.840Z,4.1
2023-03-04T09:24:47.538Z,4.1
2023-03-04T09:25:15.159Z,4.1
2023-03-04T09:26:27.941Z,4.1
2023-03-04T09:26:55.436Z,4.1
2023-03-04T09:28:08.313Z,2.25
2023-03-04T09:28:35.741Z,2.25
2023-03-04T09:29:48.616Z,2.25
2023-03-04T09:30:16.062Z,2.25
2023-03-04T09:31:29.058Z,2.25
2023-03-04T09:31:56.416Z,2.25
2023-03-04T09:33:09.324Z,2.25
2023-03-04T09:33:36.650Z,2.25
2023-03-04T09:34:49.723Z,2.25
2023-03-04T09:35:16.967Z,2.25
2023-03-04T09:36:30.192Z,2.25
2023-03-04T09:36:57.295Z,2.25
2023-03-04T09:38:10.446Z,3.25
2023-03-04T09:38:37.597Z,3.25
2023-03-04T09:39:50.758Z,3.25
2023-03-04T09:40:17.877Z,3.25
2023-03-04T09:41:31.087Z,3.25
2023-03-04T09:41:58.176Z,3.25
2023-03-04T09:43:11.461Z,3.25
2023-03-04T09:43:38.492Z,3.25
2023-03-04T09:44:51.972Z,3.25
2023-03-04T09:45:18.790Z,3.25
2023-03-04T09:46:32.469Z,3.25
2023-03-04T09:48:12.755Z,6.1
2023-03-04T09:48:39.361Z,6.1
2023-03-04T09:49:53.111Z,6.1
2023-03-04T09:50:19.681Z,6.1
2023-03-04T09:51:33.559Z,6.1
2023-03-04T09:51:59.983Z,6.1
2023-03-04T09:53:13.911Z,6.1
2023-03-04T09:53:40.271Z,6.1
2023-03-04T09:54:54.358Z,6.1
2023-03-04T09:55:20.578Z,6.1
2023-03-04T09:56:34.745Z,6.1
2023-03-04T09:57:00.873Z,6.1
2023-03-04T09:58:15.077Z,3
2023-03-04T09:58:41.164Z,3
2023-03-04T09:59:55.474Z,3
2023-03-04T10:00:21.629Z,3
2023-03-04T10:01:35.918Z,3
2023-03-04T10:02:01.808Z,3
2023-03-04T10:03:16.403Z,3
2023-03-04T10:03:42.221Z,3
2023-03-04T10:04:56.863Z,3
2023-03-04T10:05:22.427Z,3
2023-03-04T10:06:37.763Z,3
2023-03-04T10:07:02.781Z,3
2023-03-04T10:08:18.169Z,8.6
2023-03-04T10:08:43.152Z,8.6
2023-03-04T10:09:58.602Z,8.6
2023-03-04T10:10:23.632Z,8.6
2023-03-04T10:11:38.940Z,8.6
2023-03-04T10:12:03.842Z,8.6
2023-03-04T10:13:19.353Z,8.6
2023-03-04T10:13:44.215Z,8.6
2023-03-04T10:14:59.771Z,8.6
2023-03-04T10:15:24.695Z,8.6
2023-03-04T10:16:40.262Z,8.6
2023-03-04T10:17:05.067Z,8.6
2023-03-04T10:18:20.731Z,3
2023-03-04T10:18:45.441Z,3
2023-03-04T10:20:00.881Z,3
2023-03-04T10:20:25.784Z,3
2023-03-04T10:21:41.268Z,3
2023-03-04T10:22:06.212Z,3
2023-03-04T10:23:21.646Z,3
2023-03-04T10:23:46.587Z,3
2023-03-04T10:25:02.253Z,3
2023-03-04T10:25:26.941Z,3
2023-03-04T10:26:42.684Z,3
2023-03-04T10:27:07.359Z,3
2023-03-04T10:28:23.089Z,3
2023-03-04T10:28:47.721Z,2.1
2023-03-04T10:30:28.116Z,2.1
2023-03-04T10:32:08.540Z,2.1
2023-03-04T10:33:48.885Z,2.1
2023-03-04T10:35:29.211Z,2.1
2023-03-04T10:37:09.564Z,2.1
2023-03-04T10:38:09.070Z,0
2023-03-04T10:38:49.946Z,2.25
2023-03-04T10:40:30.274Z,2.25
2023-03-04T10:42:10.739Z,2.25
2023-03-04T10:43:51.002Z,2.25
2023-03-04T10:45:31.349Z,2.25
2023-03-04T10:47:11.715Z,2.25
2023-03-04T10:48:52.030Z,3.3
2023-03-04T10:50:17.532Z,0
2023-03-04T10:50:32.413Z,3.3
2023-03-04T10:52:12.750Z,3.3
2023-03-04T10:52:57.354Z,0
2023-03-04T10:53:53.072Z,3.3
2023-03-04T10:54:37.690Z,3.3
2023-03-04T10:55:33.455Z,3.3
2023-03-04T10:56:18.117Z,3.3
2023-03-04T10:57:13.768Z,3.3
2023-03-04T10:57:58.742Z,3.3
2023-03-04T10:58:54.132Z,3
2023-03-04T10:59:39.137Z,3
2023-03-04T11:00:34.467Z,3
2023-03-04T11:01:19.685Z,3
2023-03-04T11:02:14.794Z,3
2023-03-04T11:02:59.976Z,3
2023-03-04T11:03:55.202Z,3
2023-03-04T11:04:40.427Z,3
2023-03-04T11:05:35.434Z,3
2023-03-04T11:06:20.993Z,3
2023-03-04T11:07:15.741Z,3
2023-03-04T11:08:01.411Z,3
2023-03-04T11:08:56.019Z,1.85
2023-03-04T11:09:41.896Z,1.85
2023-03-04T11:10:36.312Z,1.85
2023-03-04T11:11:25.463Z,1.85
2023-03-04T11:12:16.638Z,1.85
2023-03-04T11:13:02.850Z,1.85
2023-03-04T11:13:56.904Z,1.85
2023-03-04T11:14:43.312Z,1.85
2023-03-04T11:15:37.231Z,1.85
2023-03-04T11:16:23.805Z,1.85
2023-03-04T11:17:17.507Z,1.85
2023-03-04T11:18:04.261Z,1.85
2023-03-04T11:18:57.793Z,1.15
2023-03-04T11:19:44.678Z,1.15
2023-03-04T11:20:38.118Z,1.15
2023-03-04T11:21:25.074Z,1.15
2023-03-04T11:22:18.489Z,1.15
2023-03-04T11:23:05.550Z,1.15
2023-03-04T11:23:58.833Z,1.15
2023-03-04T11:24:46.035Z,1.15
2023-03-04T11:25:39.241Z,1.15
2023-03-04T11:26:26.704Z,1.15
2023-03-04T11:27:19.566Z,1.15
2023-03-04T11:28:07.125Z,1.15
2023-03-04T11:28:59.945Z,1.15
2023-03-04T11:29:47.488Z,5.1
2023-03-04T11:30:40.280Z,5.1
2023-03-04T11:31:28.018Z,5.1
2023-03-04T11:32:20.828Z,5.1
2023-03-04T11:33:08.402Z,5.1
2023-03-04T11:34:01.043Z,5.1
2023-03-04T11:34:48.807Z,5.1
2023-03-04T11:35:41.410Z,5.1
2023-03-04T11:36:29.266Z,5.1
2023-03-04T11:37:21.684Z,5.1
2023-03-04T11:38:09.678Z,5.1